Time;durP1;ratioP1;P1;durP2;ratioP2;P2;SDS_P1;SDS_P2;PMS_P1;PMS_P2;Temp;Humidity;BMP_temperature;BMP_pressure;BME280_temperature;BME280_humidity;BME280_pressure;Samples;Min_cycle;Max_cycle;Signal;HPM_P1;HPM_P2
2023/01/13 00:01:38;;;;;;;13.90;13.02;;;1.60;99.90;;;;;;3961013;30;20458;-87
2023/01/13 00:03:59;;;;;;;18.52;16.90;;;1.60;99.90;;;;;;3960217;30;20054;-87
2023/01/13 00:06:24;;;;;;;23.48;21.23;;;1.50;99.90;;;;;;3960883;30;20361;-87
2023/01/13 00:08:46;;;;;;;23.25;19.48;;;1.40;99.90;;;;;;3948803;30;20047;-87
2023/01/13 00:11:06;;;;;;;23.48;21.23;;;1.30;99.90;;;;;;3946987;30;20120;-87
2023/01/13 00:13:27;;;;;;;22.25;20.02;;;1.40;99.90;;;;;;3949187;30;20097;-87
2023/01/13 00:15:55;;;;;;;21.85;19.60;;;1.40;99.90;;;;;;3949429;30;20101;-87
2023/01/13 00:18:15;;;;;;;23.27;21.15;;;1.40;99.90;;;;;;3948403;30;20378;-87
2023/01/13 00:20:35;;;;;;;22.98;20.65;;;1.30;99.90;;;;;;3948495;30;20063;-87
2023/01/13 00:22:55;;;;;;;23.70;20.58;;;1.20;99.90;;;;;;3948096;30;20058;-87
2023/01/13 00:25:15;;;;;;;20.77;18.88;;;1.20;99.90;;;;;;3949237;30;20412;-87
2023/01/13 00:27:35;;;;;;;21.48;19.30;;;1.20;99.90;;;;;;3959520;30;20265;-87
2023/01/13 00:29:55;;;;;;;19.52;17.67;;;1.40;99.90;;;;;;3948519;30;20059;-87
2023/01/13 00:32:14;;;;;;;20.38;18.30;;;1.30;99.90;;;;;;3948288;30;20067;-87
2023/01/13 00:34:34;;;;;;;19.95;17.83;;;1.40;99.90;;;;;;3947915;30;20059;-87
2023/01/13 00:36:55;;;;;;;21.33;19.17;;;1.60;99.90;;;;;;3960967;30;20139;-87
2023/01/13 00:39:15;;;;;;;25.73;22.02;;;1.70;99.90;;;;;;3948423;30;20050;-87
2023/01/13 00:43:21;;;;;;;26.50;22.10;;;1.70;99.90;;;;;;3949194;30;20082;-87
2023/01/13 00:44:14;;;;;;;17.75;16.02;;;1.70;99.90;;;;;;3948018;30;20116;-87
2023/01/13 00:46:34;;;;;;;15.70;14.65;;;1.70;99.90;;;;;;3948414;30;20109;-87
2023/01/13 00:48:54;;;;;;;14.85;13.75;;;1.70;99.90;;;;;;3947184;30;20074;-87
2023/01/13 00:51:17;;;;;;;19.33;17.52;;;1.80;99.90;;;;;;3948659;30;20055;-87
2023/01/13 00:53:39;;;;;;;29.25;21.60;;;1.90;99.90;;;;;;3948172;30;20293;-87
2023/01/13 00:56:05;;;;;;;19.10;17.23;;;1.80;99.90;;;;;;3947530;30;20086;-87
2023/01/13 00:58:26;;;;;;;16.35;15.07;;;1.80;99.90;;;;;;3947655;30;20043;-87
2023/01/13 01:00:46;;;;;;;23.58;19.35;;;1.80;99.90;;;;;;3961652;30;20054;-87
2023/01/13 01:03:11;;;;;;;19.27;17.08;;;1.80;99.90;;;;;;3958904;29;20081;-88
2023/01/13 01:05:32;;;;;;;20.88;19.00;;;1.60;99.90;;;;;;3948353;30;20299;-87
2023/01/13 01:07:52;;;;;;;20.95;19.15;;;1.50;99.90;;;;;;3961149;30;20404;-87
2023/01/13 01:10:12;;;;;;;18.58;16.83;;;1.40;99.90;;;;;;3944963;30;20092;-87
2023/01/13 01:12:33;;;;;;;18.52;16.90;;;1.50;99.90;;;;;;3947969;30;20097;-87
2023/01/13 01:14:53;;;;;;;18.17;16.23;;;1.50;99.90;;;;;;3948231;30;20094;-87
2023/01/13 01:17:14;;;;;;;18.95;17.02;;;1.40;99.90;;;;;;3959289;30;20381;-87
2023/01/13 01:19:36;;;;;;;18.08;16.55;;;1.30;99.90;;;;;;3948848;30;20090;-87
2023/01/13 01:21:56;;;;;;;18.25;16.63;;;1.40;99.90;;;;;;3960739;30;20055;-87
2023/01/13 01:24:15;;;;;;;18.75;16.95;;;1.40;99.90;;;;;;3948536;30;20071;-87
2023/01/13 01:26:35;;;;;;;19.25;17.58;;;1.40;99.90;;;;;;3948111;30;20292;-87
2023/01/13 01:28:55;;;;;;;18.20;16.55;;;1.30;99.90;;;;;;3947554;30;20079;-87
2023/01/13 01:31:27;;;;;;;18.92;17.38;;;1.40;99.90;;;;;;3948163;30;20096;-87
2023/01/13 01:33:48;;;;;;;15.35;14.10;;;1.50;99.90;;;;;;3947798;30;20055;-87
2023/01/13 01:36:10;;;;;;;18.08;16.63;;;1.60;99.90;;;;;;3950301;30;20162;-87
2023/01/13 01:38:30;;;;;;;16.88;15.23;;;1.60;99.90;;;;;;3946660;30;20116;-87
2023/01/13 01:40:50;;;;;;;16.17;14.77;;;1.50;99.90;;;;;;3958880;30;20111;-87
2023/01/13 01:45:57;;;;;;;20.00;18.10;;;1.30;99.90;;;;;;3947713;30;20136;-87
2023/01/13 01:48:17;;;;;;;19.80;16.98;;;1.30;99.90;;;;;;3946845;30;20269;-87
2023/01/13 01:50:38;;;;;;;21.60;19.30;;;1.30;99.90;;;;;;3947827;30;20103;-87
2023/01/13 01:53:05;;;;;;;19.33;17.35;;;1.40;99.90;;;;;;3959632;30;20054;-87
2023/01/13 01:55:30;;;;;;;17.48;15.75;;;1.50;99.90;;;;;;3947362;30;20236;-87
2023/01/13 01:58:05;;;;;;;19.25;17.48;;;1.60;99.90;;;;;;3947384;30;20054;-87
2023/01/13 02:00:27;;;;;;;16.98;15.35;;;1.60;99.90;;;;;;3947434;30;20065;-87
2023/01/13 02:02:50;;;;;;;18.98;17.00;;;1.60;99.90;;;;;;3959545;30;20319;-87
2023/01/13 02:05:10;;;;;;;18.23;16.40;;;1.60;99.90;;;;;;3947370;30;20054;-88
2023/01/13 02:07:32;;;;;;;19.98;17.98;;;1.50;99.90;;;;;;3947045;30;20443;-87
2023/01/13 02:09:54;;;;;;;17.48;16.15;;;1.50;99.90;;;;;;3946784;30;20094;-87
2023/01/13 02:12:31;;;;;;;17.42;16.00;;;1.40;99.90;;;;;;3946966;30;20107;-87
2023/01/13 02:14:50;;;;;;;19.23;17.30;;;1.40;99.90;;;;;;3958729;30;20485;-87
2023/01/13 02:17:26;;;;;;;18.38;16.67;;;1.30;99.90;;;;;;3947126;30;20288;-87
2023/01/13 02:20:12;;;;;;;18.90;16.95;;;1.40;99.90;;;;;;3947206;30;20051;-87
2023/01/13 02:22:53;;;;;;;17.95;15.90;;;1.60;99.90;;;;;;3947124;30;20241;-87
2023/01/13 02:25:34;;;;;;;17.73;15.98;;;1.60;99.90;;;;;;3947094;30;20055;-87
2023/01/13 02:28:12;;;;;;;19.45;17.27;;;1.70;99.90;;;;;;3946507;30;20043;-87
2023/01/13 02:33:38;;;;;;;16.55;15.02;;;1.50;99.90;;;;;;3947023;30;20097;-87
2023/01/13 02:36:19;;;;;;;18.42;16.55;;;1.40;99.90;;;;;;3946607;30;20079;-87
2023/01/13 02:38:50;;;;;;;17.95;16.52;;;1.50;99.90;;;;;;3946684;30;20083;-87
2023/01/13 02:44:09;;;;;;;15.30;13.63;;;1.40;99.90;;;;;;3947376;30;20059;-87
2023/01/13 02:46:42;;;;;;;15.40;14.23;;;1.60;99.90;;;;;;3945705;30;20112;-87
2023/01/13 02:49:06;;;;;;;16.77;15.35;;;1.70;99.90;;;;;;3947560;30;20068;-87
2023/01/13 02:51:29;;;;;;;14.90;13.63;;;1.70;99.90;;;;;;3947681;30;20127;-87
2023/01/13 02:54:08;;;;;;;16.35;15.02;;;1.80;99.90;;;;;;3946570;30;20093;-87
2023/01/13 02:56:36;;;;;;;18.20;16.52;;;1.70;99.90;;;;;;3946734;30;20309;-87
2023/01/13 02:58:57;;;;;;;17.50;15.95;;;1.60;99.90;;;;;;3947098;30;20111;-87
2023/01/13 03:01:18;;;;;;;18.15;16.35;;;1.50;99.90;;;;;;3946457;30;20117;-87
2023/01/13 03:03:38;;;;;;;20.08;16.92;;;1.50;99.90;;;;;;3946457;30;20100;-87
2023/01/13 03:06:15;;;;;;;17.60;16.05;;;1.40;99.90;;;;;;3946771;30;20060;-87
2023/01/13 03:08:51;;;;;;;17.27;15.98;;;1.30;99.90;;;;;;3958688;30;20050;-87
2023/01/13 03:11:13;;;;;;;17.02;15.57;;;1.40;99.90;;;;;;3948041;30;20050;-87
2023/01/13 03:13:40;;;;;;;18.35;16.48;;;1.40;99.90;;;;;;3947057;30;20047;-87
2023/01/13 03:16:06;;;;;;;16.23;14.48;;;1.40;99.90;;;;;;3947500;30;20086;-87
2023/01/13 03:18:32;;;;;;;14.25;13.05;;;1.40;99.90;;;;;;3950402;30;20063;-87
2023/01/13 03:21:16;;;;;;;15.60;14.50;;;1.40;99.90;;;;;;3958157;30;20058;-87
2023/01/13 03:23:48;;;;;;;17.33;15.90;;;1.50;99.90;;;;;;3948197;30;20093;-87
2023/01/13 03:26:16;;;;;;;15.32;14.00;;;1.50;99.90;;;;;;3946791;30;20059;-87
2023/01/13 03:29:04;;;;;;;19.63;17.65;;;1.50;99.90;;;;;;3948404;30;20059;-87
2023/01/13 03:31:30;;;;;;;17.25;15.73;;;1.50;99.90;;;;;;3953852;30;20305;-87
2023/01/13 03:34:08;;;;;;;17.00;15.43;;;1.50;99.90;;;;;;3949538;30;20170;-87
2023/01/13 03:36:31;;;;;;;16.50;15.13;;;1.50;99.90;;;;;;3948611;30;20235;-87
2023/01/13 03:38:55;;;;;;;21.73;17.52;;;1.50;99.90;;;;;;3948907;30;20120;-87
2023/01/13 03:41:25;;;;;;;19.13;17.30;;;1.50;99.90;;;;;;3950009;30;20087;-87
2023/01/13 03:46:59;;;;;;;16.85;15.57;;;1.60;99.90;;;;;;3949519;30;20401;-87
2023/01/13 03:49:22;;;;;;;17.50;15.70;;;1.50;99.90;;;;;;3960577;30;20357;-87
2023/01/13 03:51:46;;;;;;;15.30;14.15;;;1.50;99.90;;;;;;3949358;30;20051;-87
2023/01/13 03:54:10;;;;;;;15.38;14.18;;;1.60;99.90;;;;;;3952225;30;20086;-87
2023/01/13 03:56:42;;;;;;;14.18;13.07;;;1.60;99.90;;;;;;3946113;30;20150;-87
2023/01/13 03:59:05;;;;;;;16.80;15.35;;;1.60;99.90;;;;;;3949195;30;20140;-87
2023/01/13 04:01:37;;;;;;;20.52;18.67;;;1.50;99.90;;;;;;3949117;30;20128;-87
2023/01/13 04:04:16;;;;;;;18.25;16.45;;;1.40;99.90;;;;;;3949463;30;20089;-88
2023/01/13 04:06:46;;;;;;;19.35;17.85;;;1.30;99.90;;;;;;3947892;30;20116;-87
2023/01/13 04:09:22;;;;;;;19.23;17.42;;;1.30;99.90;;;;;;3948451;30;20112;-87
2023/01/13 04:11:48;;;;;;;17.85;16.52;;;1.30;99.90;;;;;;3948089;30;20046;-87
2023/01/13 04:14:09;;;;;;;17.85;16.45;;;1.30;99.90;;;;;;3947662;30;20120;-87
2023/01/13 04:16:29;;;;;;;18.48;16.88;;;1.20;99.90;;;;;;3950533;30;20082;-87
2023/01/13 04:18:49;;;;;;;20.48;18.63;;;1.20;99.90;;;;;;3948392;30;20223;-87
2023/01/13 04:21:10;;;;;;;17.85;16.60;;;1.20;99.90;;;;;;3948699;30;20055;-87
2023/01/13 04:23:31;;;;;;;18.75;17.25;;;1.20;99.90;;;;;;3949403;30;20432;-87
2023/01/13 04:25:51;;;;;;;18.70;17.00;;;1.20;99.90;;;;;;3959866;30;20058;-87
2023/01/13 04:28:12;;;;;;;17.90;16.38;;;1.20;99.90;;;;;;3949905;30;20063;-87
2023/01/13 04:30:32;;;;;;;16.95;15.27;;;1.30;99.90;;;;;;3948218;30;20062;-87
2023/01/13 04:32:52;;;;;;;18.25;16.80;;;1.30;99.90;;;;;;3949334;30;20097;-87
2023/01/13 04:35:12;;;;;;;18.63;16.92;;;1.30;99.90;;;;;;3950966;30;20073;-88
2023/01/13 04:37:32;;;;;;;17.38;15.88;;;1.30;99.90;;;;;;3948377;30;20098;-87
2023/01/13 04:39:52;;;;;;;16.10;14.55;;;1.40;99.90;;;;;;3947932;30;20497;-87
2023/01/13 04:42:12;;;;;;;15.90;14.55;;;1.40;99.90;;;;;;3951414;30;20122;-87
2023/01/13 04:44:34;;;;;;;16.88;15.32;;;1.50;99.90;;;;;;3949598;30;20430;-87
2023/01/13 04:46:53;;;;;;;18.67;16.85;;;1.50;99.90;;;;;;3949266;30;20055;-87
2023/01/13 04:49:13;;;;;;;22.77;17.67;;;1.60;99.90;;;;;;3948287;30;20131;-87
2023/01/13 04:51:33;;;;;;;19.83;17.52;;;1.50;99.90;;;;;;3960209;30;20086;-88
2023/01/13 04:53:54;;;;;;;20.02;17.52;;;1.50;99.90;;;;;;3947754;30;20082;-87
2023/01/13 04:56:14;;;;;;;18.77;17.17;;;1.60;99.90;;;;;;3948603;30;20258;-88
2023/01/13 04:58:33;;;;;;;17.48;15.50;;;1.60;99.90;;;;;;3948099;30;20176;-87
2023/01/13 05:00:54;;;;;;;29.45;20.10;;;1.60;99.90;;;;;;3947741;30;20255;-87
2023/01/13 05:03:14;;;;;;;22.67;17.63;;;1.60;99.90;;;;;;3947732;30;20093;-87
2023/01/13 05:05:33;;;;;;;20.05;17.42;;;1.60;99.90;;;;;;3948750;30;20101;-87
2023/01/13 05:07:53;;;;;;;22.20;17.55;;;1.60;99.90;;;;;;3946146;30;20243;-87
2023/01/13 05:10:14;;;;;;;20.88;17.33;;;1.60;99.90;;;;;;3948357;30;20101;-87
2023/01/13 05:17:52;;;;;;;21.55;18.95;;;1.70;99.90;;;;;;3948732;30;20063;-87
2023/01/13 05:20:13;;;;;;;17.70;16.30;;;1.60;99.90;;;;;;3947694;30;20093;-87
2023/01/13 05:25:20;;;;;;;17.73;16.05;;;1.60;99.90;;;;;;3948082;30;20084;-87
2023/01/13 05:27:40;;;;;;;18.30;16.48;;;1.50;99.90;;;;;;3959524;30;20051;-87
2023/01/13 05:30:01;;;;;;;16.02;14.65;;;1.40;99.90;;;;;;3948035;30;20236;-87
2023/01/13 05:32:21;;;;;;;17.40;15.88;;;1.30;99.90;;;;;;3947569;30;20089;-87
2023/01/13 05:34:41;;;;;;;18.27;16.67;;;1.30;99.90;;;;;;3951685;30;20127;-87
2023/01/13 05:37:00;;;;;;;17.58;16.05;;;1.30;99.90;;;;;;3960150;30;20058;-87
2023/01/13 05:39:20;;;;;;;17.77;16.15;;;1.20;99.90;;;;;;3948157;30;20062;-87
2023/01/13 05:44:19;;;;;;;17.88;16.67;;;1.20;99.90;;;;;;3948000;30;20074;-87
2023/01/13 05:46:40;;;;;;;16.15;14.80;;;1.20;99.90;;;;;;3947918;30;20084;-87
2023/01/13 05:49:00;;;;;;;17.88;16.15;;;1.20;99.90;;;;;;3947958;30;20121;-87
2023/01/13 05:51:24;;;;;;;17.05;15.23;;;1.30;99.90;;;;;;3947506;30;20051;-88
2023/01/13 05:53:45;;;;;;;14.52;13.50;;;1.20;99.90;;;;;;3947591;30;20067;-87
2023/01/13 05:56:06;;;;;;;18.60;17.13;;;1.20;99.90;;;;;;3947480;30;20063;-87
2023/01/13 05:58:27;;;;;;;18.70;17.10;;;1.20;99.90;;;;;;3946296;30;20273;-87
2023/01/13 06:00:47;;;;;;;18.38;17.17;;;1.20;99.90;;;;;;3947708;30;20235;-87
2023/01/13 06:03:08;;;;;;;16.15;14.82;;;1.20;99.90;;;;;;3947991;30;20070;-87
2023/01/13 06:05:30;;;;;;;16.67;15.23;;;1.10;99.90;;;;;;3946952;30;20056;-87
2023/01/13 06:07:50;;;;;;;18.52;17.00;;;1.10;99.90;;;;;;3948192;30;20052;-87
2023/01/13 06:10:10;;;;;;;17.30;15.90;;;1.10;99.90;;;;;;3947247;30;20051;-87
2023/01/13 06:12:30;;;;;;;17.83;16.10;;;1.10;99.90;;;;;;3950740;30;20114;-87
2023/01/13 06:14:50;;;;;;;19.77;18.05;;;1.10;99.90;;;;;;3948301;30;20076;-88
2023/01/13 06:17:12;;;;;;;17.25;15.93;;;1.00;99.90;;;;;;3947449;30;20374;-87
2023/01/13 06:19:31;;;;;;;17.65;16.35;;;1.00;99.90;;;;;;3947303;30;20055;-87
2023/01/13 06:21:55;;;;;;;18.50;16.90;;;1.10;99.90;;;;;;3947266;30;20050;-87
2023/01/13 06:24:14;;;;;;;17.83;16.35;;;1.10;99.90;;;;;;3947395;30;20106;-87
2023/01/13 06:26:37;;;;;;;19.55;17.60;;;1.10;99.90;;;;;;3959079;30;20054;-87
2023/01/13 06:28:57;;;;;;;;;;;1.10;99.90;;;;;;3946713;30;20050;-87
2023/01/13 06:31:17;;;;;;;19.13;17.23;;;1.00;99.90;;;;;;3947145;30;20001;-88
2023/01/13 06:33:43;;;;;;;20.75;18.83;;;1.00;99.90;;;;;;3947354;30;20120;-87
2023/01/13 06:36:08;;;;;;;17.45;15.95;;;1.00;99.90;;;;;;3946462;30;20085;-87
2023/01/13 06:38:33;;;;;;;17.13;15.68;;;1.00;99.90;;;;;;3947242;30;20093;-87
2023/01/13 06:40:53;;;;;;;19.73;17.75;;;1.00;99.90;;;;;;3958841;30;20385;-87
2023/01/13 06:43:14;;;;;;;21.95;19.73;;;1.10;99.90;;;;;;3946966;30;20074;-87
2023/01/13 06:45:36;;;;;;;20.35;18.52;;;1.10;99.90;;;;;;3947600;30;20070;-87
2023/01/13 06:47:58;;;;;;;18.02;16.08;;;1.10;99.90;;;;;;3947243;30;20132;-88
2023/01/13 06:50:18;;;;;;;18.55;16.85;;;1.10;99.90;;;;;;3946528;30;20160;-87
2023/01/13 06:52:38;;;;;;;17.67;16.02;;;1.10;99.90;;;;;;3947189;30;20088;-87
2023/01/13 06:54:57;;;;;;;16.63;15.30;;;1.20;99.90;;;;;;3948113;30;20060;-88
2023/01/13 06:57:17;;;;;;;20.58;18.48;;;1.20;99.90;;;;;;3947356;30;20071;-89
2023/01/13 06:59:37;;;;;;;27.20;23.65;;;1.20;99.90;;;;;;3947963;30;20063;-89
2023/01/13 07:01:57;;;;;;;24.45;21.45;;;1.10;99.90;;;;;;3944509;30;20055;-89
2023/01/13 07:04:18;;;;;;;24.30;21.70;;;1.10;99.90;;;;;;3949254;30;20060;-90
2023/01/13 07:06:38;;;;;;;30.40;21.27;;;1.20;99.90;;;;;;3949800;30;20051;-90
2023/01/13 07:08:58;;;;;;;29.60;24.73;;;1.10;99.90;;;;;;3950034;30;20244;-89
2023/01/13 07:11:18;;;;;;;24.02;21.13;;;1.10;99.90;;;;;;3961110;30;20108;-90
2023/01/13 07:16:16;;;;;;;46.30;39.55;;;1.00;99.90;;;;;;3949412;30;20063;-89
2023/01/13 07:18:37;;;;;;;32.75;29.55;;;1.00;99.90;;;;;;3949205;30;20044;-90
2023/01/13 07:21:00;;;;;;;27.90;25.17;;;1.00;99.90;;;;;;3949319;30;20151;-89
2023/01/13 07:23:19;;;;;;;28.20;24.65;;;1.00;99.90;;;;;;3949672;30;20154;-89
2023/01/13 07:25:39;;;;;;;25.50;22.77;;;1.10;99.90;;;;;;3948377;30;20386;-89
2023/01/13 07:27:59;;;;;;;71.63;47.55;;;1.00;99.90;;;;;;3949144;30;20089;-89
2023/01/13 07:30:19;;;;;;;24.85;22.40;;;1.00;99.90;;;;;;3950030;30;20385;-90
2023/01/13 07:32:39;;;;;;;28.80;24.80;;;0.90;99.90;;;;;;3949223;30;20255;-89
2023/01/13 07:35:04;;;;;;;24.70;22.30;;;0.80;99.90;;;;;;3949588;30;20101;-89
2023/01/13 07:37:24;;;;;;;32.17;28.00;;;0.90;99.90;;;;;;3961291;30;20276;-90
2023/01/13 07:39:44;;;;;;;30.85;27.45;;;1.00;99.90;;;;;;3948474;30;20121;-89
2023/01/13 07:44:43;;;;;;;32.22;26.10;;;1.10;99.90;;;;;;3948913;30;20100;-90
2023/01/13 07:47:04;;;;;;;25.73;22.83;;;1.20;99.90;;;;;;3956084;30;20401;-90
2023/01/13 07:49:24;;;;;;;24.85;22.25;;;1.20;99.90;;;;;;3949249;30;20422;-90
2023/01/13 07:51:44;;;;;;;24.92;22.25;;;1.30;99.90;;;;;;3949574;30;20425;-90
2023/01/13 07:54:05;;;;;;;22.08;19.80;;;1.40;99.90;;;;;;3948839;30;20083;-90
2023/01/13 07:56:24;;;;;;;21.27;19.27;;;1.40;99.90;;;;;;3961135;30;20059;-90
2023/01/13 07:58:49;;;;;;;17.45;16.23;;;1.50;99.90;;;;;;3949256;30;20096;-90
2023/01/13 08:01:12;;;;;;;13.85;12.80;;;1.70;99.90;;;;;;3960425;30;20434;-90
2023/01/13 08:03:33;;;;;;;15.07;13.95;;;1.70;99.90;;;;;;3960625;30;20066;-90
2023/01/13 08:05:53;;;;;;;13.30;12.32;;;1.80;99.90;;;;;;3947742;30;20127;-90
2023/01/13 08:08:13;;;;;;;14.95;13.80;;;1.80;99.90;;;;;;3960556;30;20043;-90
2023/01/13 08:10:33;;;;;;;18.65;17.05;;;1.90;99.90;;;;;;3964808;30;20058;-90
2023/01/13 08:15:31;;;;;;;27.27;24.20;;;2.10;99.90;;;;;;3948685;30;20047;-90
2023/01/13 08:17:51;;;;;;;35.75;26.83;;;2.10;99.90;;;;;;3962485;30;20166;-91
2023/01/13 08:20:12;;;;;;;33.10;27.80;;;2.20;99.90;;;;;;3947102;30;20123;-90
2023/01/13 08:22:32;;;;;;;38.03;29.63;;;2.20;99.90;;;;;;3962781;30;20050;-91
2023/01/13 08:24:52;;;;;;;36.85;26.25;;;2.20;99.90;;;;;;3947562;30;20129;-91
2023/01/13 08:27:12;;;;;;;40.00;31.92;;;2.30;99.90;;;;;;3948557;30;20073;-90
2023/01/13 08:29:32;;;;;;;75.25;48.95;;;2.40;99.90;;;;;;3946427;30;20050;-91
2023/01/13 08:31:52;;;;;;;49.75;37.58;;;2.50;99.90;;;;;;3948537;30;20051;-91
2023/01/13 08:34:12;;;;;;;30.70;25.48;;;2.50;99.90;;;;;;3948680;30;20056;-91
2023/01/13 08:36:32;;;;;;;33.72;26.02;;;2.50;99.90;;;;;;3963405;30;20332;-91
2023/01/13 08:38:52;;;;;;;33.90;29.17;;;2.50;99.90;;;;;;3947890;30;20385;-90
2023/01/13 08:41:53;;;;;;;32.13;28.55;;;2.50;99.90;;;;;;3949815;30;20058;-91
2023/01/13 08:43:55;;;;;;;32.42;26.10;;;2.50;99.90;;;;;;3948116;30;20485;-91
2023/01/13 08:46:14;;;;;;;30.50;26.77;;;2.50;99.90;;;;;;3961108;30;20050;-92
2023/01/13 08:48:35;;;;;;;31.42;27.88;;;2.60;99.90;;;;;;3947241;30;20048;-91
2023/01/13 08:51:04;;;;;;;27.65;24.75;;;2.50;99.90;;;;;;3949891;30;20071;-91
2023/01/13 08:53:24;;;;;;;26.67;23.95;;;2.60;99.90;;;;;;3947035;30;20047;-92
2023/01/13 08:55:44;;;;;;;35.40;25.45;;;2.70;99.90;;;;;;3947313;30;20102;-92
2023/01/13 08:58:04;;;;;;;31.23;25.85;;;2.80;99.90;;;;;;3948952;30;20103;-92
2023/01/13 09:00:35;;;;;;;29.98;26.13;;;2.90;99.90;;;;;;3948234;30;20093;-91
2023/01/13 09:02:58;;;;;;;32.20;26.17;;;2.90;99.90;;;;;;3946631;30;20042;-90
2023/01/13 09:05:18;;;;;;;43.28;32.13;;;2.90;99.90;;;;;;3960852;30;20396;-90
2023/01/13 09:07:38;;;;;;;34.28;28.08;;;2.90;99.90;;;;;;3948319;30;20574;-89
2023/01/13 09:09:58;;;;;;;29.48;25.35;;;2.90;99.90;;;;;;3948343;30;20146;-89
2023/01/13 09:14:57;;;;;;;30.52;27.02;;;2.90;99.90;;;;;;3949189;30;20055;-89
2023/01/13 09:17:17;;;;;;;21.67;19.77;;;2.90;99.90;;;;;;3947731;30;20073;-89
2023/01/13 09:19:37;;;;;;;21.05;18.95;;;2.90;99.90;;;;;;3947308;30;20370;-89
2023/01/13 09:21:58;;;;;;;26.48;23.25;;;3.10;99.90;;;;;;3950498;30;20082;-89
2023/01/13 09:24:18;;;;;;;19.90;18.15;;;3.20;99.90;;;;;;3946497;30;20090;-90
2023/01/13 09:26:39;;;;;;;17.02;15.63;;;3.20;99.90;;;;;;3948656;30;20055;-90
2023/01/13 09:28:58;;;;;;;19.25;17.42;;;3.20;99.90;;;;;;3948798;30;20298;-90
2023/01/13 09:31:19;;;;;;;15.32;14.13;;;3.30;99.90;;;;;;3947243;30;20150;-90
2023/01/13 09:36:18;;;;;;;13.85;13.00;;;3.50;99.90;;;;;;3948307;30;20078;-90
2023/01/13 09:38:38;;;;;;;18.83;17.10;;;3.60;99.90;;;;;;3946953;30;20047;-89
2023/01/13 09:40:58;;;;;;;19.35;17.55;;;3.80;99.90;;;;;;3947365;30;20058;-90
2023/01/13 09:48:58;;;;;;;15.35;14.02;;;4.10;99.90;;;;;;3948596;30;20085;-90
2023/01/13 09:51:26;;;;;;;14.85;13.75;;;4.20;99.90;;;;;;3947449;30;20246;-90
2023/01/13 09:53:55;;;;;;;15.82;14.75;;;4.30;99.90;;;;;;3949495;30;20051;-89
2023/01/13 09:56:15;;;;;;;12.55;11.60;;;4.30;99.90;;;;;;3947352;30;20050;-89
2023/01/13 09:58:36;;;;;;;12.80;12.00;;;4.30;99.90;;;;;;3947516;30;20070;-90
2023/01/13 10:00:58;;;;;;;12.40;11.70;;;4.40;99.90;;;;;;3959837;30;20106;-89
2023/01/13 10:03:29;;;;;;;12.77;12.07;;;4.40;99.90;;;;;;3959414;30;20119;-89
2023/01/13 10:06:03;;;;;;;10.15;9.75;;;4.50;99.90;;;;;;3947164;30;20070;-90
2023/01/13 10:08:42;;;;;;;;;;;4.60;99.90;;;;;;3953838;30;20235;-90
2023/01/13 10:13:56;;;;;;;10.40;9.90;;;4.60;99.90;;;;;;3950993;30;20128;-90
2023/01/13 10:16:40;;;;;;;11.18;10.68;;;4.60;99.90;;;;;;3947359;30;20055;-89
2023/01/13 10:19:11;;;;;;;11.23;10.70;;;4.80;99.90;;;;;;3947990;30;20090;-89
2023/01/13 10:21:40;;;;;;;11.30;10.52;;;4.80;99.90;;;;;;3957865;30;20099;-90
2023/01/13 10:24:14;;;;;;;11.18;10.48;;;4.90;99.90;;;;;;3950394;30;20078;-89
2023/01/13 10:27:00;;;;;;;9.57;9.13;;;4.90;99.90;;;;;;3960552;30;20070;-89
2023/01/13 10:29:26;;;;;;;11.20;10.50;;;5.00;99.90;;;;;;3952999;30;20046;-90
2023/01/13 10:31:46;;;;;;;11.57;10.82;;;5.00;99.90;;;;;;3949963;30;20067;-90
2023/01/13 10:34:06;;;;;;;11.50;10.90;;;5.00;99.90;;;;;;3959287;29;20383;-89
2023/01/13 10:36:26;;;;;;;11.93;11.18;;;5.00;99.90;;;;;;3960172;30;20073;-89
2023/01/13 10:38:48;;;;;;;8.95;8.68;;;5.10;99.90;;;;;;3961812;30;20118;-88
2023/01/13 10:41:15;;;;;;;10.77;9.80;;;5.20;99.90;;;;;;3949478;30;20051;-88
2023/01/13 10:43:34;;;;;;;12.07;11.13;;;5.20;99.90;;;;;;3961643;30;20051;-88
2023/01/13 10:46:00;;;;;;;9.43;8.88;;;5.30;99.90;;;;;;3950575;30;20250;-89
2023/01/13 10:48:19;;;;;;;10.93;10.25;;;5.40;99.90;;;;;;3950312;30;20097;-89
2023/01/13 10:50:40;;;;;;;15.77;13.50;;;5.40;99.90;;;;;;3949045;30;20094;-88
2023/01/13 10:53:16;;;;;;;11.93;10.95;;;5.50;99.90;;;;;;3948504;30;20147;-89
2023/01/13 10:55:36;;;;;;;10.15;9.60;;;5.50;99.90;;;;;;3954680;30;20239;-89
2023/01/13 10:58:10;;;;;;;9.07;8.60;;;5.70;99.90;;;;;;3949437;30;20243;-89
2023/01/13 11:00:32;;;;;;;11.55;10.95;;;5.90;99.90;;;;;;3950316;30;20048;-89
2023/01/13 11:03:17;;;;;;;13.10;11.88;;;6.10;99.90;;;;;;3951595;30;20098;-89
2023/01/13 11:05:36;;;;;;;16.23;11.73;;;6.20;99.90;;;;;;3947515;30;20118;-89
2023/01/13 11:07:57;;;;;;;14.63;12.32;;;6.20;99.90;;;;;;3961908;30;20055;-88
2023/01/13 11:10:30;;;;;;;11.15;10.10;;;6.30;99.90;;;;;;3949425;30;20141;-89
2023/01/13 11:13:14;;;;;;;12.68;11.68;;;6.40;99.90;;;;;;3961801;30;20047;-88
2023/01/13 11:15:54;;;;;;;11.65;10.63;;;6.40;99.90;;;;;;3950682;30;20086;-88
2023/01/13 11:18:39;;;;;;;17.42;11.93;;;6.40;99.90;;;;;;3960735;30;20050;-88
2023/01/13 11:21:03;;;;;;;10.93;10.27;;;6.50;99.90;;;;;;3949775;30;20121;-88
2023/01/13 11:23:41;;;;;;;12.98;12.00;;;6.50;99.90;;;;;;3948389;30;20240;-88
2023/01/13 11:26:17;;;;;;;10.48;9.88;;;6.70;99.90;;;;;;3950083;30;20051;-88
2023/01/13 11:28:54;;;;;;;33.45;23.05;;;6.70;99.90;;;;;;3950483;30;20062;-89
2023/01/13 11:31:41;;;;;;;34.00;23.67;;;6.70;99.90;;;;;;3950392;30;20088;-89
2023/01/13 11:34:20;;;;;;;16.10;14.48;;;6.80;99.90;;;;;;3949836;30;20058;-89
2023/01/13 11:36:46;;;;;;;19.85;17.83;;;6.80;99.90;;;;;;3949113;30;20116;-89
2023/01/13 11:39:42;;;;;;;12.93;12.02;;;6.90;99.90;;;;;;3948498;30;20090;-89
2023/01/13 11:42:20;;;;;;;10.40;9.60;;;7.00;99.90;;;;;;3952591;30;20052;-89
2023/01/13 11:44:48;;;;;;;15.77;14.18;;;7.00;99.90;;;;;;3952423;30;20078;-89
2023/01/13 11:47:10;;;;;;;21.98;19.20;;;7.00;99.90;;;;;;3948586;30;20369;-89
2023/01/13 11:49:32;;;;;;;10.80;10.02;;;7.10;99.90;;;;;;3949230;30;20062;-89
2023/01/13 11:52:03;;;;;;;9.77;9.05;;;7.10;99.90;;;;;;3948158;30;20105;-89
2023/01/13 11:54:34;;;;;;;11.70;10.90;;;7.00;99.90;;;;;;3955623;30;20059;-89
2023/01/13 11:57:17;;;;;;;10.65;9.88;;;7.10;99.90;;;;;;3948993;30;20102;-89
2023/01/13 12:00:00;;;;;;;8.98;8.65;;;7.20;99.90;;;;;;3948480;30;20051;-89
2023/01/13 12:02:26;;;;;;;9.63;8.82;;;7.20;99.90;;;;;;3948912;30;20050;-89
2023/01/13 12:05:28;;;;;;;8.70;8.30;;;7.20;99.90;;;;;;3948913;30;20094;-89
2023/01/13 12:08:24;;;;;;;9.45;8.70;;;7.30;99.90;;;;;;3948339;30;20063;-89
2023/01/13 12:11:13;;;;;;;12.18;11.13;;;7.20;99.90;;;;;;3965536;30;20054;-89
2023/01/13 12:13:55;;;;;;;10.77;10.07;;;7.20;99.90;;;;;;3954159;30;20374;-89
2023/01/13 12:16:24;;;;;;;10.95;10.25;;;7.30;99.90;;;;;;3935244;30;20136;-89
2023/01/13 12:19:29;;;;;;;11.95;10.93;;;7.40;99.90;;;;;;3950671;30;20255;-90
2023/01/13 12:22:00;;;;;;;15.05;13.73;;;7.40;99.90;;;;;;3949146;30;20419;-89
2023/01/13 12:24:48;;;;;;;22.70;18.35;;;7.40;99.90;;;;;;3948774;30;20082;-89
2023/01/13 12:27:39;;;;;;;17.60;13.77;;;7.50;99.90;;;;;;3950733;30;20051;-89
2023/01/13 12:30:02;;;;;;;15.15;12.85;;;7.50;99.90;;;;;;3951320;30;20282;-89
2023/01/13 12:32:35;;;;;;;18.50;16.30;;;7.50;99.90;;;;;;3951720;30;20236;-89
2023/01/13 12:35:34;;;;;;;12.63;11.48;;;7.60;99.90;;;;;;3949061;30;20101;-89
2023/01/13 12:37:59;;;;;;;13.82;12.32;;;7.70;99.90;;;;;;3948053;30;20098;-89
2023/01/13 12:40:45;;;;;;;15.05;13.70;;;7.80;99.90;;;;;;3949742;30;20054;-89
2023/01/13 12:46:18;;;;;;;14.90;13.38;;;7.80;99.90;;;;;;3948153;30;20059;-89
2023/01/13 12:48:53;;;;;;;9.15;8.68;;;7.90;99.90;;;;;;3960923;30;20365;-89
2023/01/13 12:51:28;;;;;;;12.20;10.93;;;7.90;99.90;;;;;;3960744;30;20065;-89
2023/01/13 12:53:48;;;;;;;10.77;9.50;;;8.00;99.90;;;;;;3954317;30;20124;-89
2023/01/13 12:56:43;;;;;;;12.65;11.80;;;8.00;99.90;;;;;;3948357;30;20470;-89
2023/01/13 12:59:18;;;;;;;13.20;12.00;;;8.00;99.90;;;;;;3959913;29;21210;-89
2023/01/13 13:01:38;;;;;;;12.43;11.23;;;8.00;99.90;;;;;;3950423;30;20062;-89
2023/01/13 13:04:13;;;;;;;30.40;15.68;;;8.00;99.90;;;;;;3961175;30;20104;-89
2023/01/13 13:06:38;;;;;;;14.45;13.20;;;7.90;99.90;;;;;;3948572;30;20043;-89
2023/01/13 13:09:04;;;;;;;23.45;16.23;;;8.00;99.90;;;;;;3961429;30;20066;-89
2023/01/13 13:14:35;;;;;;;18.55;11.80;;;8.00;99.90;;;;;;3948001;30;20042;-89
2023/01/13 13:16:55;;;;;;;10.65;9.85;;;8.00;99.90;;;;;;3948628;30;20047;-89
2023/01/13 13:19:21;;;;;;;7.72;7.32;;;8.10;99.90;;;;;;3948620;30;20064;-89